VJT4LP LEAS-LEIB
Flight info
| Callsign | VJT4LP |
|---|---|
| Flight time | N/A |
| Altitude | 33000 |
| Route | LEVNO Q210 SNR/N0491F300 M190 BLV M601 BCN/N0524F330 Z174 CORDA |
| Aircraft | GLF6/M-SBDE2E3FGHIJ4J5M1RWXY/LB1D1 |
Departure
| Time | 2026-05-08 16:55 |
|---|---|
| Airport | Asturias Airport (LEAS) |
Arrival
| Time | N/A |
|---|---|
| Airport | Ibiza Airport (LEIB) |
| Time | Latitude | Longitude | Altitude | Speed | Heading |
|---|---|---|---|---|---|
| 2026-05-08 16:36 | 43.55888 | -6.02768 | 421 ft | 0 kts | 244° |
| 2026-05-08 16:50 | 43.55890 | -6.02784 | 422 ft | 5 kts | 287° |
| 2026-05-08 16:50 | 43.55913 | -6.02860 | 423 ft | 11 kts | 302° |
| 2026-05-08 16:50 | 43.56000 | -6.02898 | 421 ft | 12 kts | 355° |
| 2026-05-08 16:51 | 43.56049 | -6.02868 | 419 ft | 8 kts | 76° |
| 2026-05-08 16:51 | 43.56031 | -6.02780 | 418 ft | 12 kts | 107° |
| 2026-05-08 16:51 | 43.55999 | -6.02645 | 415 ft | 16 kts | 109° |
| 2026-05-08 16:51 | 43.55960 | -6.02487 | 409 ft | 19 kts | 108° |
| 2026-05-08 16:52 | 43.55959 | -6.02325 | 401 ft | 0 kts | 63° |
| 2026-05-08 16:52 | 43.55971 | -6.02297 | 399 ft | 6 kts | 56° |
| 2026-05-08 16:52 | 43.55989 | -6.02263 | 397 ft | 0 kts | 46° |
| 2026-05-08 16:53 | 43.56010 | -6.02234 | 395 ft | 9 kts | 45° |
| 2026-05-08 16:53 | 43.56071 | -6.02241 | 396 ft | 8 kts | 290° |
| 2026-05-08 16:54 | 43.56079 | -6.02281 | 399 ft | 0 kts | 286° |
| 2026-05-08 16:54 | 43.56079 | -6.02282 | 399 ft | 0 kts | 286° |
| 2026-05-08 16:54 | 43.56113 | -6.02433 | 407 ft | 53 kts | 288° |
| 2026-05-08 16:55 | 43.56345 | -6.03405 | 486 ft | 151 kts | 288° |
| 2026-05-08 16:55 | 43.56691 | -6.04862 | 1584 ft | 162 kts | 288° |
| 2026-05-08 16:55 | 43.56981 | -6.05945 | 3157 ft | 121 kts | 289° |
| 2026-05-08 16:55 | 43.57327 | -6.07271 | 3444 ft | 174 kts | 286° |
| 2026-05-08 16:56 | 43.57679 | -6.08849 | 4519 ft | 176 kts | 285° |
| 2026-05-08 16:56 | 43.58040 | -6.10436 | 5558 ft | 180 kts | 285° |
| 2026-05-08 16:56 | 43.58412 | -6.12052 | 6580 ft | 184 kts | 285° |
| 2026-05-08 16:56 | 43.58797 | -6.13712 | 7633 ft | 186 kts | 284° |
| 2026-05-08 16:57 | 43.59188 | -6.15388 | 8536 ft | 198 kts | 284° |
| 2026-05-08 16:57 | 43.60054 | -6.16981 | 9293 ft | 229 kts | 328° |
| 2026-05-08 16:57 | 43.61554 | -6.17281 | 10619 ft | 226 kts | 12° |
| 2026-05-08 16:57 | 43.63049 | -6.16576 | 11535 ft | 243 kts | 22° |
| 2026-05-08 16:58 | 43.64780 | -6.15706 | 12082 ft | 283 kts | 21° |
| 2026-05-08 16:58 | 43.66573 | -6.14858 | 13801 ft | 274 kts | 21° |
| 2026-05-08 16:58 | 43.68363 | -6.14026 | 15037 ft | 283 kts | 20° |
| 2026-05-08 16:58 | 43.70213 | -6.13161 | 16296 ft | 289 kts | 25° |
| 2026-05-08 16:59 | 43.71753 | -6.11508 | 17595 ft | 284 kts | 60° |
| 2026-05-08 16:59 | 43.72519 | -6.08951 | 18114 ft | 311 kts | 86° |
| 2026-05-08 16:59 | 43.72544 | -6.05758 | 18192 ft | 356 kts | 95° |
| 2026-05-08 16:59 | 43.72512 | -6.02169 | 18485 ft | 394 kts | 93° |
| 2026-05-08 17:00 | 43.72514 | -5.98373 | 20063 ft | 396 kts | 94° |
| 2026-05-08 17:00 | 43.72523 | -5.94589 | 21312 ft | 405 kts | 93° |
| 2026-05-08 17:00 | 43.72535 | -5.90682 | 22532 ft | 415 kts | 94° |
| 2026-05-08 17:00 | 43.72549 | -5.86740 | 23888 ft | 420 kts | 94° |
| 2026-05-08 17:01 | 43.72561 | -5.82686 | 25038 ft | 429 kts | 94° |
| 2026-05-08 17:01 | 43.72573 | -5.78511 | 26216 ft | 436 kts | 93° |
| 2026-05-08 17:01 | 43.72584 | -5.74340 | 27346 ft | 442 kts | 94° |
| 2026-05-08 17:01 | 43.72594 | -5.70147 | 28424 ft | 448 kts | 94° |
| 2026-05-08 17:02 | 43.72600 | -5.65811 | 29369 ft | 456 kts | 93° |
| 2026-05-08 17:02 | 43.72607 | -5.61418 | 30379 ft | 461 kts | 93° |
| 2026-05-08 17:02 | 43.72612 | -5.56971 | 31216 ft | 467 kts | 93° |
| 2026-05-08 17:02 | 43.72615 | -5.52526 | 32192 ft | 468 kts | 94° |
| 2026-05-08 17:03 | 43.72616 | -5.48047 | 32823 ft | 478 kts | 94° |
| 2026-05-08 17:03 | 43.72613 | -5.43329 | 32866 ft | 501 kts | 93° |
| 2026-05-08 17:03 | 43.72609 | -5.38427 | 32860 ft | 519 kts | 94° |
| 2026-05-08 17:03 | 43.72151 | -5.33496 | 32855 ft | 518 kts | 106° |
| 2026-05-08 17:04 | 43.70417 | -5.23931 | 32867 ft | 514 kts | 108° |
| 2026-05-08 17:04 | 43.68665 | -5.14411 | 32865 ft | 514 kts | 108° |
| 2026-05-08 17:05 | 43.66901 | -5.04869 | 32862 ft | 513 kts | 108° |
| 2026-05-08 17:05 | 43.65127 | -4.95326 | 32865 ft | 513 kts | 108° |
| 2026-05-08 17:06 | 43.63353 | -4.85826 | 32869 ft | 517 kts | 108° |
| 2026-05-08 17:06 | 43.61552 | -4.76236 | 32873 ft | 517 kts | 108° |
| 2026-05-08 17:07 | 43.59755 | -4.66711 | 32867 ft | 514 kts | 108° |
| 2026-05-08 17:07 | 43.57947 | -4.57180 | 32873 ft | 517 kts | 108° |
| 2026-05-08 17:08 | 43.56121 | -4.47595 | 32873 ft | 518 kts | 108° |
| 2026-05-08 17:08 | 43.54288 | -4.38025 | 32872 ft | 518 kts | 108° |
| 2026-05-08 17:09 | 43.52443 | -4.28452 | 32871 ft | 517 kts | 109° |
| 2026-05-08 17:09 | 43.50592 | -4.18912 | 32875 ft | 520 kts | 109° |
| 2026-05-08 17:10 | 43.48748 | -4.09450 | 32877 ft | 520 kts | 108° |
| 2026-05-08 17:10 | 43.46881 | -3.99921 | 32880 ft | 518 kts | 109° |
| 2026-05-08 17:11 | 43.44997 | -3.90344 | 32881 ft | 520 kts | 108° |
| 2026-05-08 17:11 | 43.43561 | -3.80621 | 32880 ft | 522 kts | 105° |
| 2026-05-08 17:12 | 43.42122 | -3.70804 | 32878 ft | 522 kts | 105° |
| 2026-05-08 17:12 | 43.40678 | -3.61049 | 32878 ft | 522 kts | 105° |
| 2026-05-08 17:13 | 43.39224 | -3.51303 | 32877 ft | 522 kts | 105° |
| 2026-05-08 17:13 | 43.37756 | -3.41514 | 32877 ft | 523 kts | 105° |
| 2026-05-08 17:14 | 43.36288 | -3.31784 | 32880 ft | 522 kts | 105° |
| 2026-05-08 17:14 | 43.34838 | -3.22005 | 32883 ft | 522 kts | 105° |
| 2026-05-08 17:15 | 43.33383 | -3.12248 | 32887 ft | 524 kts | 105° |
| 2026-05-08 17:15 | 43.31914 | -3.02455 | 32890 ft | 522 kts | 105° |
| 2026-05-08 17:16 | 43.30228 | -2.92740 | 32863 ft | 518 kts | 116° |
| 2026-05-08 17:16 | 43.26624 | -2.84317 | 32892 ft | 513 kts | 125° |
| 2026-05-08 17:17 | 43.22819 | -2.76065 | 32894 ft | 514 kts | 125° |
| 2026-05-08 17:17 | 43.19015 | -2.67846 | 32896 ft | 516 kts | 126° |
| 2026-05-08 17:18 | 43.15181 | -2.59586 | 32898 ft | 515 kts | 125° |
| 2026-05-08 17:18 | 43.11312 | -2.51277 | 32904 ft | 516 kts | 125° |
| 2026-05-08 17:19 | 43.07453 | -2.43009 | 32908 ft | 517 kts | 125° |
| 2026-05-08 17:19 | 43.03573 | -2.34723 | 32915 ft | 517 kts | 126° |
| 2026-05-08 17:20 | 42.99708 | -2.26489 | 32912 ft | 517 kts | 126° |
| 2026-05-08 17:20 | 42.95863 | -2.18243 | 32915 ft | 519 kts | 126° |
| 2026-05-08 17:21 | 42.91989 | -2.09920 | 32921 ft | 518 kts | 126° |